createdAt,value
2023-05-16T00:01:46.228Z,11.65
2023-05-16T00:04:13.297Z,11.68
2023-05-16T00:06:40.013Z,11.57
2023-05-16T00:09:07.018Z,11.49
2023-05-16T00:11:33.656Z,11.51
2023-05-16T00:14:01.540Z,11.53
2023-05-16T00:16:30.135Z,11.48
2023-05-16T00:19:01.079Z,11.51
2023-05-16T00:21:28.046Z,11.54
2023-05-16T00:23:54.772Z,11.51
2023-05-16T00:26:22.041Z,11.54
2023-05-16T00:28:48.906Z,11.60
2023-05-16T00:31:15.822Z,11.61
2023-05-16T00:33:42.624Z,11.60
2023-05-16T00:36:09.411Z,11.61
2023-05-16T00:38:36.096Z,11.64
2023-05-16T00:41:02.719Z,11.59
2023-05-16T00:43:29.365Z,11.60
2023-05-16T00:45:57.902Z,11.60
2023-05-16T00:48:25.453Z,11.60
2023-05-16T00:50:53.279Z,11.59
2023-05-16T00:53:23.193Z,11.58
2023-05-16T00:55:49.975Z,11.62
2023-05-16T00:58:16.709Z,11.65
2023-05-16T01:00:47.848Z,11.65
2023-05-16T01:03:15.428Z,11.64
2023-05-16T01:05:42.331Z,11.66
2023-05-16T01:08:08.900Z,11.65
2023-05-16T01:10:50.029Z,11.54
2023-05-16T01:13:32.131Z,11.56
2023-05-16T01:16:36.269Z,11.62
2023-05-16T01:19:32.776Z,11.67
2023-05-16T01:22:05.441Z,11.64
2023-05-16T01:24:52.052Z,11.46
2023-05-16T01:27:19.832Z,11.52
2023-05-16T01:29:46.514Z,11.56
2023-05-16T01:32:14.469Z,11.55
2023-05-16T01:34:41.275Z,11.53
2023-05-16T01:37:24.438Z,11.54
2023-05-16T01:40:02.618Z,11.59
2023-05-16T01:42:35.036Z,11.61
2023-05-16T01:45:23.605Z,11.59
2023-05-16T01:48:05.555Z,11.61
2023-05-16T01:50:36.249Z,11.51
2023-05-16T01:53:16.299Z,11.50
2023-05-16T01:55:51.281Z,11.49
2023-05-16T01:58:21.300Z,11.52
2023-05-16T02:00:48.197Z,11.51
2023-05-16T02:03:14.973Z,11.49
2023-05-16T02:05:41.673Z,11.51
2023-05-16T02:08:12.137Z,11.44
2023-05-16T02:10:40.134Z,11.25
2023-05-16T02:13:06.720Z,11.22
2023-05-16T02:15:33.363Z,11.26
2023-05-16T02:18:00.020Z,11.37
2023-05-16T02:20:26.742Z,11.32
2023-05-16T02:22:54.006Z,11.28
2023-05-16T02:25:20.652Z,11.22
2023-05-16T02:27:47.286Z,11.11
2023-05-16T02:30:14.058Z,11.21
2023-05-16T02:32:41.231Z,11.25
2023-05-16T02:35:08.421Z,11.29
2023-05-16T02:37:35.177Z,11.30
2023-05-16T02:40:02.246Z,11.35
2023-05-16T02:42:29.348Z,11.38
2023-05-16T02:44:56.368Z,11.41
2023-05-16T02:47:24.062Z,11.47
2023-05-16T02:49:52.299Z,11.52
2023-05-16T02:52:19.753Z,11.51
2023-05-16T02:54:51.899Z,11.44
2023-05-16T02:57:26.911Z,11.37
2023-05-16T02:59:53.550Z,11.39
2023-05-16T03:02:20.201Z,11.35
2023-05-16T03:04:46.826Z,11.29
2023-05-16T03:07:14.050Z,11.21
2023-05-16T03:09:40.734Z,11.30
2023-05-16T03:12:07.684Z,11.28
2023-05-16T03:14:34.800Z,11.28
2023-05-16T03:17:03.171Z,11.28
2023-05-16T03:19:29.744Z,11.27
2023-05-16T03:21:56.666Z,11.29
2023-05-16T03:24:23.920Z,11.36
2023-05-16T03:26:50.902Z,11.34
2023-05-16T03:29:20.823Z,11.31
2023-05-16T03:31:47.650Z,11.31
2023-05-16T03:34:14.454Z,11.38
2023-05-16T03:36:41.579Z,11.32
2023-05-16T03:39:08.670Z,11.38
2023-05-16T03:41:35.832Z,11.44
2023-05-16T03:44:02.532Z,11.42
2023-05-16T03:46:29.321Z,11.47
2023-05-16T03:48:56.023Z,11.32
2023-05-16T03:51:22.613Z,11.37
2023-05-16T03:53:49.229Z,11.42
2023-05-16T03:56:16.018Z,11.43
2023-05-16T03:58:42.585Z,11.45
2023-05-16T04:01:09.241Z,11.45
2023-05-16T04:03:36.136Z,11.40
2023-05-16T04:06:03.018Z,11.34
2023-05-16T04:08:29.898Z,11.41
2023-05-16T04:10:56.509Z,11.43
2023-05-16T04:13:23.226Z,11.44
2023-05-16T04:15:49.855Z,11.43
2023-05-16T04:18:16.568Z,11.38
2023-05-16T04:20:43.702Z,11.44
2023-05-16T04:23:12.008Z,11.44
2023-05-16T04:25:38.733Z,11.35
2023-05-16T04:28:05.874Z,11.37
2023-05-16T04:30:32.536Z,11.37
2023-05-16T04:32:59.519Z,11.43
2023-05-16T04:35:28.413Z,11.44
2023-05-16T04:37:55.962Z,11.37
2023-05-16T04:40:22.658Z,11.41
2023-05-16T04:42:49.520Z,11.41
2023-05-16T04:45:16.407Z,11.50
2023-05-16T04:47:43.022Z,11.49
2023-05-16T04:50:10.093Z,11.50
2023-05-16T04:52:38.178Z,11.53
2023-05-16T04:55:05.264Z,11.48
2023-05-16T04:57:31.890Z,11.49
2023-05-16T04:59:58.523Z,11.52
2023-05-16T05:02:25.417Z,11.55
2023-05-16T05:04:52.062Z,11.51
2023-05-16T05:07:19.180Z,11.66
2023-05-16T05:09:46.610Z,11.59
2023-05-16T05:12:13.444Z,11.70
2023-05-16T05:14:40.144Z,11.66
2023-05-16T05:17:06.829Z,11.60
2023-05-16T05:19:33.763Z,11.64
2023-05-16T05:22:00.555Z,11.57
2023-05-16T05:24:27.146Z,11.56
2023-05-16T05:26:53.792Z,11.60
2023-05-16T05:29:20.441Z,11.62
2023-05-16T05:31:47.344Z,11.70
2023-05-16T05:34:14.105Z,11.75
2023-05-16T05:36:40.774Z,11.85
2023-05-16T05:39:07.363Z,11.77
2023-05-16T05:41:33.946Z,11.80
2023-05-16T05:44:00.780Z,11.76
2023-05-16T05:46:27.501Z,11.78
2023-05-16T05:48:54.218Z,11.77
2023-05-16T05:51:20.903Z,11.78
2023-05-16T05:53:47.568Z,11.76
2023-05-16T05:56:14.145Z,11.75
2023-05-16T05:58:42.021Z,11.77
2023-05-16T06:01:08.599Z,11.77
2023-05-16T06:03:35.282Z,11.77
2023-05-16T06:06:02.072Z,11.78
2023-05-16T06:08:28.710Z,11.65
2023-05-16T06:10:55.499Z,11.56
2023-05-16T06:13:22.099Z,11.17
2023-05-16T06:15:55.014Z,11.14
2023-05-16T06:18:22.093Z,11.17
2023-05-16T06:20:48.879Z,11.15
2023-05-16T06:23:15.835Z,11.21
2023-05-16T06:25:42.516Z,11.38
2023-05-16T06:28:09.259Z,11.36
2023-05-16T06:30:35.877Z,11.30
2023-05-16T06:33:02.560Z,11.32
2023-05-16T06:35:29.396Z,11.34
2023-05-16T06:37:56.171Z,11.34
2023-05-16T06:40:22.754Z,11.27
2023-05-16T06:42:49.436Z,11.34
2023-05-16T06:45:16.504Z,11.29
2023-05-16T06:47:43.325Z,11.25
2023-05-16T06:50:10.983Z,11.31
2023-05-16T06:52:37.635Z,11.26
2023-05-16T06:55:04.686Z,11.31
2023-05-16T06:57:31.373Z,11.31
2023-05-16T06:59:57.978Z,11.32
2023-05-16T07:02:24.756Z,11.43
2023-05-16T07:04:51.446Z,11.53
2023-05-16T07:07:18.114Z,11.48
2023-05-16T07:09:44.899Z,11.58
2023-05-16T07:12:11.652Z,11.63
2023-05-16T07:14:38.263Z,11.64
2023-05-16T07:17:05.070Z,11.69
2023-05-16T07:19:31.854Z,11.68
2023-05-16T07:21:58.465Z,11.72
2023-05-16T07:24:25.096Z,11.77
2023-05-16T07:26:51.807Z,11.81
2023-05-16T07:29:18.780Z,11.87
2023-05-16T07:31:45.653Z,12.04
2023-05-16T07:34:12.291Z,11.99
2023-05-16T07:36:38.999Z,12.03
2023-05-16T07:39:05.714Z,12.02
2023-05-16T07:41:32.460Z,12.00
2023-05-16T07:43:59.131Z,11.96
2023-05-16T07:46:26.071Z,11.89
2023-05-16T07:48:52.812Z,11.87
2023-05-16T07:51:19.434Z,11.92
2023-05-16T07:53:46.501Z,11.99
2023-05-16T07:56:13.144Z,12.09
2023-05-16T07:58:40.565Z,12.20
2023-05-16T08:01:07.351Z,12.20
2023-05-16T08:03:35.432Z,12.14
2023-05-16T08:06:02.535Z,12.17
2023-05-16T08:08:29.336Z,12.28
2023-05-16T08:10:56.686Z,12.33
2023-05-16T08:13:23.419Z,12.37
2023-05-16T08:15:50.157Z,12.36
2023-05-16T08:18:16.931Z,12.27
2023-05-16T08:20:43.976Z,12.40
2023-05-16T08:23:10.710Z,12.39
2023-05-16T08:25:37.642Z,12.47
2023-05-16T08:28:04.412Z,12.49
2023-05-16T08:30:31.463Z,12.64
2023-05-16T08:32:58.155Z,12.61
2023-05-16T08:35:24.881Z,12.56
2023-05-16T08:37:51.695Z,12.57
2023-05-16T08:40:19.320Z,12.38
2023-05-16T08:42:46.065Z,12.37
2023-05-16T08:45:12.974Z,12.40
2023-05-16T08:47:41.577Z,12.44
2023-05-16T08:50:10.210Z,12.60
2023-05-16T08:52:38.410Z,12.83
2023-05-16T08:55:10.739Z,13.01
2023-05-16T08:57:38.361Z,13.32
2023-05-16T09:00:12.291Z,13.91
2023-05-16T09:02:44.564Z,14.08
2023-05-16T09:05:13.134Z,13.78
2023-05-16T09:07:40.606Z,13.61
2023-05-16T09:10:08.420Z,13.63
2023-05-16T09:12:35.884Z,13.81
2023-05-16T09:15:04.808Z,13.80
2023-05-16T09:17:40.453Z,13.67
2023-05-16T09:20:18.687Z,13.70
2023-05-16T09:22:57.014Z,13.77
2023-05-16T09:25:31.014Z,13.82
2023-05-16T09:28:01.252Z,13.79
2023-05-16T09:30:35.154Z,13.83
2023-05-16T09:33:02.500Z,13.83
2023-05-16T09:37:58.882Z,13.70
2023-05-16T09:40:25.721Z,13.51
2023-05-16T09:43:10.441Z,13.45
2023-05-16T09:45:37.191Z,13.49
2023-05-16T09:48:09.228Z,13.53
2023-05-16T09:50:37.750Z,13.33
2023-05-16T09:53:05.730Z,13.17
2023-05-16T09:55:32.778Z,13.10
2023-05-16T09:57:59.486Z,13.15
2023-05-16T10:00:31.257Z,13.15
2023-05-16T10:03:01.474Z,12.96
2023-05-16T10:05:31.488Z,12.89
2023-05-16T10:07:58.860Z,12.84
2023-05-16T10:10:26.718Z,12.82
2023-05-16T10:12:54.364Z,12.83
2023-05-16T10:15:21.315Z,12.67
2023-05-16T10:17:53.024Z,12.58
2023-05-16T10:20:21.449Z,12.54
2023-05-16T10:22:52.557Z,12.51
2023-05-16T10:25:39.299Z,12.55
2023-05-16T10:28:08.452Z,12.51
2023-05-16T10:30:36.595Z,12.42
2023-05-16T10:33:04.644Z,12.49
2023-05-16T10:35:33.033Z,12.36
2023-05-16T10:38:01.113Z,12.47
2023-05-16T10:40:30.663Z,12.47
2023-05-16T10:42:59.075Z,12.69
2023-05-16T10:45:26.490Z,13.11
2023-05-16T10:47:59.327Z,13.13
2023-05-16T10:50:36.483Z,13.50
2023-05-16T10:53:22.804Z,14.21
2023-05-16T10:55:58.943Z,14.46
2023-05-16T10:58:41.176Z,14.40
2023-05-16T11:01:33.799Z,14.58
2023-05-16T11:04:10.478Z,14.67
2023-05-16T11:06:43.130Z,14.66
2023-05-16T11:09:13.720Z,14.52
2023-05-16T11:11:52.821Z,14.43
2023-05-16T11:14:23.588Z,14.17
2023-05-16T11:17:00.968Z,14.05
2023-05-16T11:19:39.596Z,13.94
2023-05-16T11:22:17.030Z,13.65
2023-05-16T11:25:09.513Z,13.60
2023-05-16T11:27:47.746Z,13.43
2023-05-16T11:30:15.775Z,13.41
2023-05-16T11:32:43.986Z,13.32
2023-05-16T11:35:15.123Z,13.34
2023-05-16T11:37:42.852Z,13.22
2023-05-16T11:40:12.250Z,13.06
2023-05-16T11:42:41.691Z,12.92
2023-05-16T11:45:11.489Z,13.14
2023-05-16T11:47:40.102Z,13.16
2023-05-16T11:50:27.368Z,13.25
2023-05-16T11:52:57.155Z,13.43
2023-05-16T11:55:40.319Z,13.47
2023-05-16T11:58:09.474Z,13.50
2023-05-16T12:00:36.633Z,13.51
2023-05-16T12:03:05.862Z,13.47
2023-05-16T12:05:34.233Z,13.37
2023-05-16T12:08:05.956Z,13.17
2023-05-16T12:10:34.738Z,13.11
2023-05-16T12:13:03.403Z,12.74
2023-05-16T12:15:32.082Z,12.85
2023-05-16T12:17:59.087Z,12.54
2023-05-16T12:20:26.285Z,12.56
2023-05-16T12:22:53.085Z,12.57
2023-05-16T12:25:23.980Z,12.76
2023-05-16T12:27:51.281Z,12.64
2023-05-16T12:30:19.115Z,12.76
2023-05-16T12:32:46.092Z,12.75
2023-05-16T12:35:18.703Z,12.65
2023-05-16T12:37:45.353Z,12.89
2023-05-16T12:40:13.403Z,12.95
2023-05-16T12:42:40.038Z,12.97
2023-05-16T12:45:16.096Z,13.07
2023-05-16T12:47:42.920Z,13.10
2023-05-16T12:50:12.751Z,13.23
2023-05-16T12:52:49.865Z,13.34
2023-05-16T12:55:21.177Z,13.31
2023-05-16T12:57:49.771Z,13.18
2023-05-16T13:00:19.889Z,13.11
2023-05-16T13:02:47.911Z,13.10
2023-05-16T13:05:16.025Z,13.20
2023-05-16T13:07:42.977Z,13.28
2023-05-16T13:10:12.908Z,13.32
2023-05-16T13:12:40.841Z,13.57
2023-05-16T13:15:09.515Z,13.56
2023-05-16T13:17:37.322Z,13.58
2023-05-16T13:20:10.375Z,13.30
2023-05-16T13:22:37.637Z,13.33
2023-05-16T13:25:06.129Z,13.23
2023-05-16T13:27:33.297Z,13.05
2023-05-16T13:30:00.256Z,13.21
2023-05-16T13:32:27.259Z,13.05
2023-05-16T13:34:54.623Z,13.14
2023-05-16T13:37:21.439Z,13.08
2023-05-16T13:39:48.089Z,13.08
2023-05-16T13:42:15.131Z,13.07
2023-05-16T13:44:42.427Z,13.03
2023-05-16T13:47:09.567Z,12.96
2023-05-16T13:49:37.001Z,13.08
2023-05-16T13:52:03.995Z,13.02
2023-05-16T13:54:30.663Z,13.06
2023-05-16T13:56:57.684Z,13.07
2023-05-16T13:59:41.149Z,12.90
2023-05-16T14:02:11.005Z,12.84
2023-05-16T14:04:37.608Z,12.71
2023-05-16T14:07:04.412Z,12.57
2023-05-16T14:09:31.858Z,12.57
2023-05-16T14:11:58.450Z,12.56
2023-05-16T14:14:25.060Z,12.66
2023-05-16T14:16:51.928Z,12.56
2023-05-16T14:19:19.558Z,12.35
2023-05-16T14:21:46.494Z,12.31
2023-05-16T14:24:13.170Z,12.41
2023-05-16T14:26:39.798Z,12.37
2023-05-16T14:29:06.505Z,12.37
2023-05-16T14:31:33.705Z,12.22
2023-05-16T14:34:00.415Z,12.25
2023-05-16T14:36:27.044Z,12.10
2023-05-16T14:38:53.763Z,12.00
2023-05-16T14:41:21.454Z,11.84
2023-05-16T14:43:48.391Z,11.63
2023-05-16T14:46:15.374Z,11.72
2023-05-16T14:48:42.152Z,11.54
2023-05-16T14:51:09.420Z,11.47
2023-05-16T14:53:36.926Z,11.42
2023-05-16T14:56:04.199Z,11.42
2023-05-16T14:58:31.416Z,11.41
2023-05-16T15:00:58.591Z,11.25
2023-05-16T15:03:25.462Z,11.15
2023-05-16T15:05:52.781Z,11.21
2023-05-16T15:08:19.630Z,11.07
2023-05-16T15:10:46.676Z,11.11
2023-05-16T15:13:13.711Z,11.03
2023-05-16T15:15:42.220Z,11.03
2023-05-16T15:18:11.248Z,11.09
2023-05-16T15:20:38.223Z,11.12
2023-05-16T15:23:05.063Z,11.25
2023-05-16T15:25:31.869Z,11.08
2023-05-16T15:27:58.556Z,11.06
2023-05-16T15:30:25.709Z,10.96
2023-05-16T15:32:52.372Z,10.85
2023-05-16T15:35:19.215Z,10.68
2023-05-16T15:37:45.903Z,10.66
2023-05-16T15:40:13.623Z,10.60
2023-05-16T15:42:43.354Z,10.58
2023-05-16T15:45:11.909Z,10.52
2023-05-16T15:47:38.965Z,10.50
2023-05-16T15:50:06.229Z,10.49
2023-05-16T15:52:33.058Z,10.53
2023-05-16T15:54:59.655Z,10.51
2023-05-16T15:57:26.488Z,10.50
2023-05-16T15:59:53.100Z,10.54
2023-05-16T16:02:20.197Z,10.52
2023-05-16T16:04:49.411Z,10.57
2023-05-16T16:07:16.279Z,10.48
2023-05-16T16:09:42.989Z,10.49
2023-05-16T16:12:10.344Z,10.46
2023-05-16T16:14:37.533Z,10.34
2023-05-16T16:17:06.888Z,10.50
2023-05-16T16:19:33.600Z,10.44
2023-05-16T16:22:00.835Z,10.50
2023-05-16T16:24:27.739Z,10.42
2023-05-16T16:26:54.579Z,10.34
2023-05-16T16:29:21.637Z,10.38
2023-05-16T16:31:48.671Z,10.41
2023-05-16T16:34:16.183Z,10.26
2023-05-16T16:36:43.334Z,10.12
2023-05-16T16:39:10.372Z,10.10
2023-05-16T16:41:37.471Z,10.14
2023-05-16T16:44:04.686Z,10.23
2023-05-16T16:46:31.860Z,10.16
2023-05-16T16:48:58.551Z,10.15
2023-05-16T16:51:28.565Z,10.17
2023-05-16T16:53:55.480Z,10.16
2023-05-16T16:56:22.949Z,10.07
2023-05-16T16:58:49.914Z,10.06
2023-05-16T17:01:16.733Z,10.06
2023-05-16T17:03:43.685Z,10.15
2023-05-16T17:06:10.555Z,10.16
2023-05-16T17:08:37.203Z,10.10
2023-05-16T17:11:05.345Z,10.10
2023-05-16T17:13:33.925Z,10.16
2023-05-16T17:16:01.493Z,10.00
2023-05-16T17:18:28.132Z,10.07
2023-05-16T17:20:55.897Z,10.03
2023-05-16T17:23:22.611Z,9.92
2023-05-16T17:25:49.273Z,9.97
2023-05-16T17:28:15.982Z,10.02
2023-05-16T17:30:42.680Z,10.08
2023-05-16T17:33:09.451Z,10.16
2023-05-16T17:35:36.692Z,9.94
2023-05-16T17:38:03.364Z,9.80
2023-05-16T17:40:29.973Z,9.72
2023-05-16T17:42:57.111Z,9.70
2023-05-16T17:45:29.138Z,9.68
2023-05-16T17:47:56.673Z,9.70
2023-05-16T17:50:23.361Z,9.81
2023-05-16T17:52:50.653Z,9.91
2023-05-16T17:55:17.323Z,9.84
2023-05-16T17:57:44.023Z,9.95
2023-05-16T18:00:11.479Z,9.90
2023-05-16T18:02:39.362Z,9.88
2023-05-16T18:05:06.933Z,9.87
2023-05-16T18:07:34.123Z,9.93
2023-05-16T18:10:00.761Z,10.08
2023-05-16T18:12:27.526Z,10.02
2023-05-16T18:14:54.145Z,9.99
2023-05-16T18:17:20.924Z,10.08
2023-05-16T18:19:47.666Z,10.07
2023-05-16T18:22:14.392Z,9.94
2023-05-16T18:24:41.128Z,9.97
2023-05-16T18:27:07.754Z,10.01
2023-05-16T18:29:34.510Z,9.95
2023-05-16T18:32:01.503Z,9.85
2023-05-16T18:34:28.374Z,9.89
2023-05-16T18:36:55.002Z,9.89
2023-05-16T18:39:21.945Z,9.86
2023-05-16T18:41:48.818Z,9.71
2023-05-16T18:44:17.265Z,9.74
2023-05-16T18:46:47.272Z,9.70
2023-05-16T18:49:14.579Z,9.69
2023-05-16T18:51:41.638Z,9.73
2023-05-16T18:54:08.501Z,9.63
2023-05-16T18:56:35.196Z,9.68
2023-05-16T18:59:01.889Z,9.74
2023-05-16T19:01:28.910Z,9.82
2023-05-16T19:03:55.868Z,9.65
2023-05-16T19:06:23.074Z,9.58
2023-05-16T19:08:50.009Z,9.59
2023-05-16T19:11:18.033Z,9.53
2023-05-16T19:13:45.718Z,9.44
2023-05-16T19:16:12.893Z,9.40
2023-05-16T19:18:40.104Z,9.45
2023-05-16T19:21:15.209Z,9.43
2023-05-16T19:23:41.951Z,9.45
2023-05-16T19:26:08.670Z,9.42
2023-05-16T19:28:35.493Z,9.27
2023-05-16T19:31:02.119Z,9.33
2023-05-16T19:33:28.868Z,9.26
2023-05-16T19:35:58.661Z,9.20
2023-05-16T19:38:26.790Z,9.13
2023-05-16T19:40:53.676Z,9.25
2023-05-16T19:43:20.480Z,9.27
2023-05-16T19:45:47.279Z,9.24
2023-05-16T19:48:14.198Z,9.12
2023-05-16T19:50:41.361Z,9.05
2023-05-16T19:53:08.423Z,9.05
2023-05-16T19:55:38.173Z,8.97
2023-05-16T19:58:05.041Z,8.92
2023-05-16T20:00:31.828Z,8.92
2023-05-16T20:02:58.998Z,9.01
2023-05-16T20:05:27.190Z,8.94
2023-05-16T20:07:55.247Z,8.99
2023-05-16T20:10:22.214Z,8.93
2023-05-16T20:12:49.020Z,8.92
2023-05-16T20:15:16.260Z,8.97
2023-05-16T20:17:43.110Z,8.98
2023-05-16T20:20:10.890Z,8.96
2023-05-16T20:22:41.511Z,8.90
2023-05-16T20:25:10.593Z,8.95
2023-05-16T20:27:37.876Z,8.87
2023-05-16T20:30:09.807Z,8.93
2023-05-16T20:32:36.999Z,8.84
2023-05-16T20:35:05.022Z,8.87
2023-05-16T20:37:31.926Z,8.91
2023-05-16T20:39:58.831Z,8.83
2023-05-16T20:42:25.565Z,8.89
2023-05-16T20:44:52.259Z,8.96
2023-05-16T20:47:18.932Z,8.96
2023-05-16T20:49:45.523Z,8.97
2023-05-16T20:52:12.175Z,8.84
2023-05-16T20:54:38.831Z,8.84
2023-05-16T20:57:05.739Z,8.89
2023-05-16T20:59:32.959Z,8.91
2023-05-16T21:02:00.438Z,8.88
2023-05-16T21:04:27.279Z,8.93
2023-05-16T21:06:53.959Z,8.91
2023-05-16T21:09:21.797Z,8.84
2023-05-16T21:11:48.955Z,8.84
2023-05-16T21:14:15.738Z,8.91
2023-05-16T21:16:42.400Z,9.00
2023-05-16T21:19:09.123Z,8.84
2023-05-16T21:21:35.854Z,8.81
2023-05-16T21:24:02.721Z,8.82
2023-05-16T21:26:29.311Z,8.79
2023-05-16T21:28:56.183Z,8.95
2023-05-16T21:31:23.245Z,8.93
2023-05-16T21:33:53.077Z,8.89
2023-05-16T21:36:20.830Z,8.93
2023-05-16T21:38:47.797Z,8.90
2023-05-16T21:41:14.742Z,8.99
2023-05-16T21:43:41.401Z,9.00
2023-05-16T21:46:08.040Z,9.04
2023-05-16T21:48:34.998Z,9.05
2023-05-16T21:51:01.987Z,9.08
2023-05-16T21:53:28.659Z,9.18
2023-05-16T21:55:55.313Z,9.12
2023-05-16T21:58:22.121Z,9.04
2023-05-16T22:00:49.588Z,9.17
2023-05-16T22:03:19.164Z,9.12
2023-05-16T22:05:46.673Z,9.19
2023-05-16T22:08:13.486Z,9.11
2023-05-16T22:10:40.161Z,9.04
2023-05-16T22:13:08.034Z,9.16
2023-05-16T22:15:34.921Z,9.14
2023-05-16T22:18:01.886Z,9.18
2023-05-16T22:20:29.547Z,9.26
2023-05-16T22:22:56.378Z,9.28
2023-05-16T22:25:23.109Z,9.27
2023-05-16T22:27:49.765Z,9.23
2023-05-16T22:30:16.406Z,9.36
2023-05-16T22:32:43.162Z,9.35
2023-05-16T22:35:09.922Z,9.34
2023-05-16T22:37:36.528Z,9.42
2023-05-16T22:40:03.222Z,9.41
2023-05-16T22:42:31.271Z,9.35
2023-05-16T22:44:57.888Z,9.28
2023-05-16T22:47:24.505Z,9.24
2023-05-16T22:49:51.225Z,9.32
2023-05-16T22:52:17.838Z,9.27
2023-05-16T22:54:44.442Z,9.41
2023-05-16T22:57:11.098Z,9.50
2023-05-16T22:59:37.709Z,9.53
2023-05-16T23:02:04.765Z,9.60
2023-05-16T23:04:31.429Z,9.56
2023-05-16T23:06:58.053Z,9.66
2023-05-16T23:09:24.767Z,9.65
2023-05-16T23:11:51.425Z,9.75
2023-05-16T23:14:18.032Z,9.56
2023-05-16T23:16:44.638Z,9.73
2023-05-16T23:19:11.384Z,9.69
2023-05-16T23:21:39.905Z,9.58
2023-05-16T23:24:06.781Z,9.68
2023-05-16T23:26:33.441Z,9.69
2023-05-16T23:29:00.416Z,9.81
2023-05-16T23:31:27.065Z,9.65
2023-05-16T23:33:53.864Z,9.67
2023-05-16T23:36:22.986Z,9.55
2023-05-16T23:38:51.848Z,9.69
2023-05-16T23:41:20.527Z,9.61
2023-05-16T23:43:47.860Z,9.45
2023-05-16T23:46:14.627Z,9.47
2023-05-16T23:48:41.524Z,9.46
2023-05-16T23:51:08.313Z,9.58
2023-05-16T23:53:35.307Z,9.52
2023-05-16T23:56:02.348Z,9.45
2023-05-16T23:58:29.078Z,9.39
